sensor_id;sensor_type;location;lat;lon;timestamp;P1;durP1;ratioP1;P2;durP2;ratioP2
21786;SDS011;11055;50.870;4.316;2023-04-15T00:00:50;5.88;;;4.57;;
21786;SDS011;11055;50.870;4.316;2023-04-15T00:03:16;6.75;;;4.40;;
21786;SDS011;11055;50.870;4.316;2023-04-15T00:05:42;6.82;;;4.95;;
21786;SDS011;11055;50.870;4.316;2023-04-15T00:08:08;6.43;;;4.95;;
21786;SDS011;11055;50.870;4.316;2023-04-15T00:10:34;6.50;;;4.70;;
21786;SDS011;11055;50.870;4.316;2023-04-15T00:13:00;5.43;;;4.22;;
21786;SDS011;11055;50.870;4.316;2023-04-15T00:15:26;4.15;;;3.72;;
21786;SDS011;11055;50.870;4.316;2023-04-15T00:17:52;4.82;;;3.75;;
21786;SDS011;11055;50.870;4.316;2023-04-15T00:20:18;5.72;;;4.18;;
21786;SDS011;11055;50.870;4.316;2023-04-15T00:22:43;5.35;;;3.65;;
21786;SDS011;11055;50.870;4.316;2023-04-15T00:25:10;6.95;;;3.95;;
21786;SDS011;11055;50.870;4.316;2023-04-15T00:27:36;4.20;;;3.70;;
21786;SDS011;11055;50.870;4.316;2023-04-15T00:30:02;5.85;;;3.83;;
21786;SDS011;11055;50.870;4.316;2023-04-15T00:32:29;7.03;;;3.83;;
21786;SDS011;11055;50.870;4.316;2023-04-15T00:34:55;4.57;;;3.70;;
21786;SDS011;11055;50.870;4.316;2023-04-15T00:37:21;4.65;;;3.25;;
21786;SDS011;11055;50.870;4.316;2023-04-15T00:39:47;4.38;;;3.38;;
21786;SDS011;11055;50.870;4.316;2023-04-15T00:42:13;4.55;;;3.42;;
21786;SDS011;11055;50.870;4.316;2023-04-15T00:44:39;4.70;;;3.30;;
21786;SDS011;11055;50.870;4.316;2023-04-15T00:47:05;4.32;;;2.97;;
21786;SDS011;11055;50.870;4.316;2023-04-15T00:49:31;6.97;;;2.97;;
21786;SDS011;11055;50.870;4.316;2023-04-15T00:51:57;4.07;;;3.10;;
21786;SDS011;11055;50.870;4.316;2023-04-15T00:54:22;4.57;;;3.00;;
21786;SDS011;11055;50.870;4.316;2023-04-15T00:56:48;3.47;;;2.95;;
21786;SDS011;11055;50.870;4.316;2023-04-15T00:59:13;4.68;;;3.00;;
21786;SDS011;11055;50.870;4.316;2023-04-15T01:01:40;6.00;;;4.80;;
21786;SDS011;11055;50.870;4.316;2023-04-15T01:04:09;5.65;;;3.22;;
21786;SDS011;11055;50.870;4.316;2023-04-15T01:06:36;4.70;;;3.20;;
21786;SDS011;11055;50.870;4.316;2023-04-15T01:09:02;3.88;;;2.83;;
21786;SDS011;11055;50.870;4.316;2023-04-15T01:11:28;3.78;;;2.78;;
21786;SDS011;11055;50.870;4.316;2023-04-15T01:13:55;3.80;;;3.08;;
21786;SDS011;11055;50.870;4.316;2023-04-15T01:16:22;6.90;;;3.35;;
21786;SDS011;11055;50.870;4.316;2023-04-15T01:18:48;4.10;;;2.60;;
21786;SDS011;11055;50.870;4.316;2023-04-15T01:21:14;5.50;;;2.90;;
21786;SDS011;11055;50.870;4.316;2023-04-15T01:23:39;3.28;;;2.58;;
21786;SDS011;11055;50.870;4.316;2023-04-15T01:26:05;2.92;;;2.40;;
21786;SDS011;11055;50.870;4.316;2023-04-15T01:28:33;3.28;;;1.55;;
21786;SDS011;11055;50.870;4.316;2023-04-15T01:31:12;2.67;;;1.90;;
21786;SDS011;11055;50.870;4.316;2023-04-15T01:33:39;3.70;;;1.90;;
21786;SDS011;11055;50.870;4.316;2023-04-15T01:36:07;7.60;;;2.40;;
21786;SDS011;11055;50.870;4.316;2023-04-15T01:38:34;2.97;;;2.25;;
21786;SDS011;11055;50.870;4.316;2023-04-15T01:41:00;4.03;;;2.38;;
21786;SDS011;11055;50.870;4.316;2023-04-15T01:43:28;3.20;;;2.30;;
21786;SDS011;11055;50.870;4.316;2023-04-15T01:45:54;2.70;;;2.20;;
21786;SDS011;11055;50.870;4.316;2023-04-15T01:48:20;3.40;;;2.20;;
21786;SDS011;11055;50.870;4.316;2023-04-15T01:50:47;3.75;;;1.92;;
21786;SDS011;11055;50.870;4.316;2023-04-15T01:53:12;3.40;;;2.38;;
21786;SDS011;11055;50.870;4.316;2023-04-15T01:55:38;4.38;;;2.45;;
21786;SDS011;11055;50.870;4.316;2023-04-15T01:58:04;2.67;;;2.20;;
21786;SDS011;11055;50.870;4.316;2023-04-15T02:00:30;4.05;;;2.50;;
21786;SDS011;11055;50.870;4.316;2023-04-15T02:02:56;2.53;;;2.10;;
21786;SDS011;11055;50.870;4.316;2023-04-15T02:05:23;2.90;;;2.47;;
21786;SDS011;11055;50.870;4.316;2023-04-15T02:07:49;3.15;;;2.50;;
21786;SDS011;11055;50.870;4.316;2023-04-15T02:10:15;3.05;;;2.53;;
21786;SDS011;11055;50.870;4.316;2023-04-15T02:12:41;5.05;;;2.60;;
21786;SDS011;11055;50.870;4.316;2023-04-15T02:15:07;3.08;;;2.65;;
21786;SDS011;11055;50.870;4.316;2023-04-15T02:17:34;4.25;;;3.05;;
21786;SDS011;11055;50.870;4.316;2023-04-15T02:20:01;6.22;;;3.03;;
21786;SDS011;11055;50.870;4.316;2023-04-15T02:22:30;3.67;;;2.97;;
21786;SDS011;11055;50.870;4.316;2023-04-15T02:24:55;3.13;;;2.75;;
21786;SDS011;11055;50.870;4.316;2023-04-15T02:27:21;4.38;;;2.97;;
21786;SDS011;11055;50.870;4.316;2023-04-15T02:29:47;2.97;;;2.67;;
21786;SDS011;11055;50.870;4.316;2023-04-15T02:32:15;4.93;;;2.42;;
21786;SDS011;11055;50.870;4.316;2023-04-15T02:34:41;3.40;;;2.38;;
21786;SDS011;11055;50.870;4.316;2023-04-15T02:37:07;4.00;;;2.60;;
21786;SDS011;11055;50.870;4.316;2023-04-15T02:39:34;2.80;;;2.50;;
21786;SDS011;11055;50.870;4.316;2023-04-15T02:41:59;2.42;;;2.22;;
21786;SDS011;11055;50.870;4.316;2023-04-15T02:44:25;5.28;;;2.80;;
21786;SDS011;11055;50.870;4.316;2023-04-15T02:46:52;4.35;;;2.50;;
21786;SDS011;11055;50.870;4.316;2023-04-15T02:49:19;5.05;;;3.15;;
21786;SDS011;11055;50.870;4.316;2023-04-15T02:51:45;4.30;;;3.10;;
21786;SDS011;11055;50.870;4.316;2023-04-15T02:54:14;5.38;;;3.13;;
21786;SDS011;11055;50.870;4.316;2023-04-15T02:56:40;6.90;;;4.20;;
21786;SDS011;11055;50.870;4.316;2023-04-15T02:59:06;9.85;;;5.28;;
21786;SDS011;11055;50.870;4.316;2023-04-15T03:01:32;10.68;;;5.80;;
21786;SDS011;11055;50.870;4.316;2023-04-15T03:03:57;14.45;;;7.65;;
21786;SDS011;11055;50.870;4.316;2023-04-15T03:06:23;16.00;;;8.85;;
21786;SDS011;11055;50.870;4.316;2023-04-15T03:08:49;15.73;;;9.30;;
21786;SDS011;11055;50.870;4.316;2023-04-15T03:11:15;14.77;;;8.48;;
21786;SDS011;11055;50.870;4.316;2023-04-15T03:13:41;17.48;;;9.43;;
21786;SDS011;11055;50.870;4.316;2023-04-15T03:16:07;16.98;;;9.77;;
21786;SDS011;11055;50.870;4.316;2023-04-15T03:18:33;15.15;;;9.75;;
21786;SDS011;11055;50.870;4.316;2023-04-15T03:20:59;16.77;;;10.43;;
21786;SDS011;11055;50.870;4.316;2023-04-15T03:23:25;18.40;;;10.40;;
21786;SDS011;11055;50.870;4.316;2023-04-15T03:25:51;18.52;;;10.02;;
21786;SDS011;11055;50.870;4.316;2023-04-15T03:28:19;16.17;;;10.05;;
21786;SDS011;11055;50.870;4.316;2023-04-15T03:30:45;19.45;;;10.23;;
21786;SDS011;11055;50.870;4.316;2023-04-15T03:33:11;17.90;;;10.95;;
21786;SDS011;11055;50.870;4.316;2023-04-15T03:35:36;21.58;;;11.10;;
21786;SDS011;11055;50.870;4.316;2023-04-15T03:38:03;18.20;;;9.95;;
21786;SDS011;11055;50.870;4.316;2023-04-15T03:40:29;16.50;;;9.77;;
21786;SDS011;11055;50.870;4.316;2023-04-15T03:42:55;13.60;;;8.30;;
21786;SDS011;11055;50.870;4.316;2023-04-15T03:45:21;16.60;;;9.38;;
21786;SDS011;11055;50.870;4.316;2023-04-15T03:47:46;17.35;;;9.93;;
21786;SDS011;11055;50.870;4.316;2023-04-15T03:50:13;14.75;;;8.52;;
21786;SDS011;11055;50.870;4.316;2023-04-15T03:52:39;12.00;;;8.32;;
21786;SDS011;11055;50.870;4.316;2023-04-15T03:55:05;14.27;;;9.15;;
21786;SDS011;11055;50.870;4.316;2023-04-15T03:57:32;13.70;;;8.48;;
21786;SDS011;11055;50.870;4.316;2023-04-15T04:00:02;13.95;;;8.55;;
21786;SDS011;11055;50.870;4.316;2023-04-15T04:02:28;13.23;;;8.35;;
21786;SDS011;11055;50.870;4.316;2023-04-15T04:04:54;12.40;;;8.40;;
21786;SDS011;11055;50.870;4.316;2023-04-15T04:07:21;12.82;;;8.15;;
21786;SDS011;11055;50.870;4.316;2023-04-15T04:09:48;11.55;;;8.20;;
21786;SDS011;11055;50.870;4.316;2023-04-15T04:12:14;14.73;;;8.48;;
21786;SDS011;11055;50.870;4.316;2023-04-15T04:14:40;12.75;;;8.50;;
21786;SDS011;11055;50.870;4.316;2023-04-15T04:17:05;12.85;;;8.77;;
21786;SDS011;11055;50.870;4.316;2023-04-15T04:19:31;13.30;;;8.63;;
21786;SDS011;11055;50.870;4.316;2023-04-15T04:21:57;11.25;;;7.97;;
21786;SDS011;11055;50.870;4.316;2023-04-15T04:24:22;14.63;;;8.75;;
21786;SDS011;11055;50.870;4.316;2023-04-15T04:26:48;11.63;;;8.55;;
21786;SDS011;11055;50.870;4.316;2023-04-15T04:29:14;13.32;;;8.30;;
21786;SDS011;11055;50.870;4.316;2023-04-15T04:31:39;13.65;;;8.25;;
21786;SDS011;11055;50.870;4.316;2023-04-15T04:34:05;11.18;;;8.02;;
21786;SDS011;11055;50.870;4.316;2023-04-15T04:36:31;11.80;;;8.85;;
21786;SDS011;11055;50.870;4.316;2023-04-15T04:38:57;11.15;;;8.30;;
21786;SDS011;11055;50.870;4.316;2023-04-15T04:41:22;13.18;;;7.65;;
21786;SDS011;11055;50.870;4.316;2023-04-15T04:43:48;13.38;;;9.65;;
21786;SDS011;11055;50.870;4.316;2023-04-15T04:46:14;12.25;;;7.85;;
21786;SDS011;11055;50.870;4.316;2023-04-15T04:48:39;12.35;;;7.72;;
21786;SDS011;11055;50.870;4.316;2023-04-15T04:51:05;13.90;;;8.25;;
21786;SDS011;11055;50.870;4.316;2023-04-15T04:53:31;13.23;;;8.00;;
21786;SDS011;11055;50.870;4.316;2023-04-15T04:55:57;15.93;;;8.35;;
21786;SDS011;11055;50.870;4.316;2023-04-15T04:58:23;12.48;;;7.68;;
21786;SDS011;11055;50.870;4.316;2023-04-15T05:00:49;12.45;;;7.75;;
21786;SDS011;11055;50.870;4.316;2023-04-15T05:03:15;9.88;;;7.18;;
21786;SDS011;11055;50.870;4.316;2023-04-15T05:05:41;10.40;;;6.93;;
21786;SDS011;11055;50.870;4.316;2023-04-15T05:08:07;10.95;;;6.75;;
21786;SDS011;11055;50.870;4.316;2023-04-15T05:10:33;10.95;;;6.75;;
21786;SDS011;11055;50.870;4.316;2023-04-15T05:12:58;10.27;;;6.60;;
21786;SDS011;11055;50.870;4.316;2023-04-15T05:15:24;13.13;;;6.93;;
21786;SDS011;11055;50.870;4.316;2023-04-15T05:17:49;8.68;;;6.10;;
21786;SDS011;11055;50.870;4.316;2023-04-15T05:20:15;9.63;;;6.03;;
21786;SDS011;11055;50.870;4.316;2023-04-15T05:22:41;9.75;;;6.57;;
21786;SDS011;11055;50.870;4.316;2023-04-15T05:25:07;9.57;;;5.72;;
21786;SDS011;11055;50.870;4.316;2023-04-15T05:27:33;10.10;;;5.95;;
21786;SDS011;11055;50.870;4.316;2023-04-15T05:29:59;14.10;;;6.32;;
21786;SDS011;11055;50.870;4.316;2023-04-15T05:32:25;10.15;;;6.70;;
21786;SDS011;11055;50.870;4.316;2023-04-15T05:34:51;8.45;;;6.00;;
21786;SDS011;11055;50.870;4.316;2023-04-15T05:37:16;11.13;;;6.50;;
21786;SDS011;11055;50.870;4.316;2023-04-15T05:39:44;8.10;;;5.80;;
21786;SDS011;11055;50.870;4.316;2023-04-15T05:42:10;9.15;;;6.18;;
21786;SDS011;11055;50.870;4.316;2023-04-15T05:44:36;8.88;;;6.35;;
21786;SDS011;11055;50.870;4.316;2023-04-15T05:47:02;12.35;;;6.28;;
21786;SDS011;11055;50.870;4.316;2023-04-15T05:49:28;11.80;;;6.50;;
21786;SDS011;11055;50.870;4.316;2023-04-15T05:51:53;10.63;;;6.45;;
21786;SDS011;11055;50.870;4.316;2023-04-15T05:54:19;10.52;;;6.65;;
21786;SDS011;11055;50.870;4.316;2023-04-15T05:56:47;9.23;;;6.20;;
21786;SDS011;11055;50.870;4.316;2023-04-15T05:59:13;10.88;;;6.20;;
21786;SDS011;11055;50.870;4.316;2023-04-15T06:01:38;8.48;;;6.35;;
21786;SDS011;11055;50.870;4.316;2023-04-15T06:04:04;12.82;;;6.03;;
21786;SDS011;11055;50.870;4.316;2023-04-15T06:06:30;9.68;;;6.30;;
21786;SDS011;11055;50.870;4.316;2023-04-15T06:08:56;10.55;;;6.68;;
21786;SDS011;11055;50.870;4.316;2023-04-15T06:11:22;12.02;;;7.43;;
21786;SDS011;11055;50.870;4.316;2023-04-15T06:13:48;10.43;;;6.30;;
21786;SDS011;11055;50.870;4.316;2023-04-15T06:16:14;8.52;;;6.40;;
21786;SDS011;11055;50.870;4.316;2023-04-15T06:18:39;10.93;;;6.38;;
21786;SDS011;11055;50.870;4.316;2023-04-15T06:21:05;11.32;;;6.45;;
21786;SDS011;11055;50.870;4.316;2023-04-15T06:23:33;8.85;;;6.43;;
21786;SDS011;11055;50.870;4.316;2023-04-15T06:26:00;10.07;;;6.22;;
21786;SDS011;11055;50.870;4.316;2023-04-15T06:28:26;10.50;;;6.53;;
21786;SDS011;11055;50.870;4.316;2023-04-15T06:30:52;11.52;;;6.55;;
21786;SDS011;11055;50.870;4.316;2023-04-15T06:33:18;12.00;;;6.65;;
21786;SDS011;11055;50.870;4.316;2023-04-15T06:35:44;11.02;;;6.22;;
21786;SDS011;11055;50.870;4.316;2023-04-15T06:38:11;11.60;;;6.63;;
21786;SDS011;11055;50.870;4.316;2023-04-15T06:40:37;9.18;;;6.13;;
21786;SDS011;11055;50.870;4.316;2023-04-15T06:43:02;8.43;;;6.82;;
21786;SDS011;11055;50.870;4.316;2023-04-15T06:45:29;8.85;;;6.35;;
21786;SDS011;11055;50.870;4.316;2023-04-15T06:47:55;9.82;;;5.88;;
21786;SDS011;11055;50.870;4.316;2023-04-15T06:50:21;7.57;;;5.65;;
21786;SDS011;11055;50.870;4.316;2023-04-15T06:52:47;10.68;;;6.25;;
21786;SDS011;11055;50.870;4.316;2023-04-15T06:55:12;8.82;;;5.70;;
21786;SDS011;11055;50.870;4.316;2023-04-15T06:57:38;10.60;;;6.10;;
21786;SDS011;11055;50.870;4.316;2023-04-15T07:00:04;8.93;;;6.40;;
21786;SDS011;11055;50.870;4.316;2023-04-15T07:02:31;8.63;;;5.82;;
21786;SDS011;11055;50.870;4.316;2023-04-15T07:04:57;13.00;;;5.93;;
21786;SDS011;11055;50.870;4.316;2023-04-15T07:07:23;9.10;;;6.78;;
21786;SDS011;11055;50.870;4.316;2023-04-15T07:09:49;9.02;;;6.72;;
21786;SDS011;11055;50.870;4.316;2023-04-15T07:12:16;9.20;;;6.15;;
21786;SDS011;11055;50.870;4.316;2023-04-15T07:14:42;11.43;;;6.03;;
21786;SDS011;11055;50.870;4.316;2023-04-15T07:17:07;10.20;;;6.15;;
21786;SDS011;11055;50.870;4.316;2023-04-15T07:19:33;14.35;;;6.30;;
21786;SDS011;11055;50.870;4.316;2023-04-15T07:21:59;10.82;;;6.10;;
21786;SDS011;11055;50.870;4.316;2023-04-15T07:24:25;13.25;;;6.00;;
21786;SDS011;11055;50.870;4.316;2023-04-15T07:26:54;10.50;;;5.95;;
21786;SDS011;11055;50.870;4.316;2023-04-15T07:29:23;13.10;;;5.80;;
21786;SDS011;11055;50.870;4.316;2023-04-15T07:31:49;9.43;;;5.82;;
21786;SDS011;11055;50.870;4.316;2023-04-15T07:34:15;12.02;;;6.07;;
21786;SDS011;11055;50.870;4.316;2023-04-15T07:36:41;8.15;;;5.85;;
21786;SDS011;11055;50.870;4.316;2023-04-15T07:39:07;9.82;;;5.85;;
21786;SDS011;11055;50.870;4.316;2023-04-15T07:41:33;9.90;;;5.63;;
21786;SDS011;11055;50.870;4.316;2023-04-15T07:43:58;11.45;;;6.10;;
21786;SDS011;11055;50.870;4.316;2023-04-15T07:46:24;10.50;;;5.90;;
21786;SDS011;11055;50.870;4.316;2023-04-15T07:48:51;7.35;;;5.90;;
21786;SDS011;11055;50.870;4.316;2023-04-15T07:51:17;10.18;;;6.03;;
21786;SDS011;11055;50.870;4.316;2023-04-15T07:53:45;11.85;;;6.20;;
21786;SDS011;11055;50.870;4.316;2023-04-15T07:56:11;10.30;;;6.80;;
21786;SDS011;11055;50.870;4.316;2023-04-15T07:58:37;10.90;;;7.07;;
21786;SDS011;11055;50.870;4.316;2023-04-15T08:01:03;9.68;;;6.80;;
21786;SDS011;11055;50.870;4.316;2023-04-15T08:03:29;9.73;;;7.13;;
21786;SDS011;11055;50.870;4.316;2023-04-15T08:05:54;11.60;;;7.80;;
21786;SDS011;11055;50.870;4.316;2023-04-15T08:08:20;10.60;;;7.90;;
21786;SDS011;11055;50.870;4.316;2023-04-15T08:10:46;9.90;;;7.78;;
21786;SDS011;11055;50.870;4.316;2023-04-15T08:13:12;11.55;;;8.05;;
21786;SDS011;11055;50.870;4.316;2023-04-15T08:15:37;12.77;;;7.78;;
21786;SDS011;11055;50.870;4.316;2023-04-15T08:18:03;11.40;;;8.40;;
21786;SDS011;11055;50.870;4.316;2023-04-15T08:20:28;12.90;;;8.65;;
21786;SDS011;11055;50.870;4.316;2023-04-15T08:22:54;11.60;;;8.85;;
21786;SDS011;11055;50.870;4.316;2023-04-15T08:25:20;13.68;;;9.15;;
21786;SDS011;11055;50.870;4.316;2023-04-15T08:27:46;13.57;;;9.25;;
21786;SDS011;11055;50.870;4.316;2023-04-15T08:30:12;12.10;;;9.20;;
21786;SDS011;11055;50.870;4.316;2023-04-15T08:32:38;14.07;;;9.55;;
21786;SDS011;11055;50.870;4.316;2023-04-15T08:35:04;14.43;;;9.15;;
21786;SDS011;11055;50.870;4.316;2023-04-15T08:37:30;14.57;;;9.40;;
21786;SDS011;11055;50.870;4.316;2023-04-15T08:39:56;13.50;;;9.25;;
21786;SDS011;11055;50.870;4.316;2023-04-15T08:42:31;13.10;;;9.57;;
21786;SDS011;11055;50.870;4.316;2023-04-15T08:45:01;13.68;;;9.82;;
21786;SDS011;11055;50.870;4.316;2023-04-15T08:47:29;13.30;;;9.32;;
21786;SDS011;11055;50.870;4.316;2023-04-15T08:49:58;16.90;;;11.48;;
21786;SDS011;11055;50.870;4.316;2023-04-15T08:52:29;13.65;;;11.15;;
21786;SDS011;11055;50.870;4.316;2023-04-15T08:54:55;14.30;;;9.82;;
21786;SDS011;11055;50.870;4.316;2023-04-15T08:57:26;12.57;;;9.93;;
21786;SDS011;11055;50.870;4.316;2023-04-15T08:59:54;16.35;;;10.38;;
21786;SDS011;11055;50.870;4.316;2023-04-15T09:02:21;13.07;;;10.35;;
21786;SDS011;11055;50.870;4.316;2023-04-15T09:04:51;11.88;;;9.55;;
21786;SDS011;11055;50.870;4.316;2023-04-15T09:07:17;14.18;;;9.82;;
21786;SDS011;11055;50.870;4.316;2023-04-15T09:09:43;10.82;;;9.65;;
21786;SDS011;11055;50.870;4.316;2023-04-15T09:12:09;13.77;;;10.15;;
21786;SDS011;11055;50.870;4.316;2023-04-15T09:14:35;10.75;;;9.52;;
21786;SDS011;11055;50.870;4.316;2023-04-15T09:17:03;12.88;;;10.65;;
21786;SDS011;11055;50.870;4.316;2023-04-15T09:19:29;14.52;;;10.35;;
21786;SDS011;11055;50.870;4.316;2023-04-15T09:21:57;15.13;;;10.02;;
21786;SDS011;11055;50.870;4.316;2023-04-15T09:24:24;11.00;;;9.65;;
21786;SDS011;11055;50.870;4.316;2023-04-15T09:26:58;11.82;;;9.35;;
21786;SDS011;11055;50.870;4.316;2023-04-15T09:29:24;11.18;;;8.95;;
21786;SDS011;11055;50.870;4.316;2023-04-15T09:31:53;13.88;;;7.40;;
21786;SDS011;11055;50.870;4.316;2023-04-15T09:34:19;9.02;;;5.47;;
21786;SDS011;11055;50.870;4.316;2023-04-15T09:39:11;7.38;;;5.47;;
21786;SDS011;11055;50.870;4.316;2023-04-15T09:41:37;13.05;;;5.80;;
21786;SDS011;11055;50.870;4.316;2023-04-15T09:44:03;10.20;;;6.07;;
21786;SDS011;11055;50.870;4.316;2023-04-15T09:46:41;8.38;;;6.30;;
21786;SDS011;11055;50.870;4.316;2023-04-15T09:49:09;7.90;;;5.85;;
21786;SDS011;11055;50.870;4.316;2023-04-15T09:51:35;13.27;;;6.07;;
21786;SDS011;11055;50.870;4.316;2023-04-15T09:54:01;7.22;;;5.45;;
21786;SDS011;11055;50.870;4.316;2023-04-15T09:56:35;8.68;;;5.70;;
21786;SDS011;11055;50.870;4.316;2023-04-15T09:59:02;8.45;;;4.97;;
21786;SDS011;11055;50.870;4.316;2023-04-15T10:01:29;6.93;;;5.07;;
21786;SDS011;11055;50.870;4.316;2023-04-15T10:03:56;9.02;;;5.70;;
21786;SDS011;11055;50.870;4.316;2023-04-15T10:06:25;7.80;;;6.15;;
21786;SDS011;11055;50.870;4.316;2023-04-15T10:08:51;8.45;;;6.18;;
21786;SDS011;11055;50.870;4.316;2023-04-15T10:11:18;13.55;;;7.18;;
21786;SDS011;11055;50.870;4.316;2023-04-15T10:13:45;9.63;;;6.43;;
21786;SDS011;11055;50.870;4.316;2023-04-15T10:16:13;7.97;;;6.88;;
21786;SDS011;11055;50.870;4.316;2023-04-15T10:18:44;8.90;;;7.10;;
21786;SDS011;11055;50.870;4.316;2023-04-15T10:21:11;7.63;;;5.90;;
21786;SDS011;11055;50.870;4.316;2023-04-15T10:23:42;7.00;;;5.50;;
21786;SDS011;11055;50.870;4.316;2023-04-15T10:26:09;11.30;;;5.78;;
21786;SDS011;11055;50.870;4.316;2023-04-15T10:28:36;7.47;;;5.18;;
21786;SDS011;11055;50.870;4.316;2023-04-15T10:31:02;6.88;;;5.10;;
21786;SDS011;11055;50.870;4.316;2023-04-15T10:33:30;6.35;;;4.97;;
21786;SDS011;11055;50.870;4.316;2023-04-15T10:35:56;5.93;;;4.40;;
21786;SDS011;11055;50.870;4.316;2023-04-15T10:46:33;8.57;;;3.78;;
21786;SDS011;11055;50.870;4.316;2023-04-15T10:49:07;3.75;;;3.10;;
21786;SDS011;11055;50.870;4.316;2023-04-15T10:51:38;4.95;;;3.50;;
21786;SDS011;11055;50.870;4.316;2023-04-15T10:54:12;4.97;;;3.60;;
21786;SDS011;11055;50.870;4.316;2023-04-15T10:59:28;3.95;;;3.50;;
21786;SDS011;11055;50.870;4.316;2023-04-15T11:01:55;6.20;;;3.47;;
21786;SDS011;11055;50.870;4.316;2023-04-15T11:07:52;4.40;;;3.35;;
21786;SDS011;11055;50.870;4.316;2023-04-15T11:12:42;3.95;;;2.95;;
21786;SDS011;11055;50.870;4.316;2023-04-15T11:18:17;4.18;;;3.03;;
21786;SDS011;11055;50.870;4.316;2023-04-15T11:20:46;4.25;;;2.90;;
21786;SDS011;11055;50.870;4.316;2023-04-15T11:23:36;4.22;;;3.38;;
21786;SDS011;11055;50.870;4.316;2023-04-15T11:26:10;4.68;;;3.22;;
21786;SDS011;11055;50.870;4.316;2023-04-15T11:28:40;3.85;;;3.38;;
21786;SDS011;11055;50.870;4.316;2023-04-15T11:31:14;4.10;;;3.70;;
21786;SDS011;11055;50.870;4.316;2023-04-15T11:33:52;4.28;;;3.10;;
21786;SDS011;11055;50.870;4.316;2023-04-15T11:36:26;3.47;;;3.17;;
21786;SDS011;11055;50.870;4.316;2023-04-15T11:38:54;3.97;;;2.60;;
21786;SDS011;11055;50.870;4.316;2023-04-15T11:41:21;2.67;;;2.30;;
21786;SDS011;11055;50.870;4.316;2023-04-15T11:43:48;2.55;;;2.35;;
21786;SDS011;11055;50.870;4.316;2023-04-15T11:46:14;3.03;;;2.70;;
21786;SDS011;11055;50.870;4.316;2023-04-15T11:48:44;5.03;;;2.67;;
21786;SDS011;11055;50.870;4.316;2023-04-15T11:51:10;4.38;;;3.58;;
21786;SDS011;11055;50.870;4.316;2023-04-15T11:53:47;4.13;;;2.83;;
21786;SDS011;11055;50.870;4.316;2023-04-15T11:56:18;2.60;;;2.17;;
21786;SDS011;11055;50.870;4.316;2023-04-15T11:58:55;3.17;;;2.25;;
21786;SDS011;11055;50.870;4.316;2023-04-15T12:01:30;2.17;;;2.00;;
21786;SDS011;11055;50.870;4.316;2023-04-15T12:03:56;3.92;;;2.58;;
21786;SDS011;11055;50.870;4.316;2023-04-15T12:06:24;4.75;;;3.40;;
21786;SDS011;11055;50.870;4.316;2023-04-15T12:14:15;3.58;;;3.20;;
21786;SDS011;11055;50.870;4.316;2023-04-15T12:16:53;4.32;;;3.20;;
21786;SDS011;11055;50.870;4.316;2023-04-15T12:19:23;2.60;;;2.38;;
21786;SDS011;11055;50.870;4.316;2023-04-15T12:21:51;4.53;;;3.03;;
21786;SDS011;11055;50.870;4.316;2023-04-15T12:24:21;4.68;;;3.10;;
21786;SDS011;11055;50.870;4.316;2023-04-15T12:29:15;3.20;;;2.90;;
21786;SDS011;11055;50.870;4.316;2023-04-15T12:34:24;3.40;;;2.65;;
21786;SDS011;11055;50.870;4.316;2023-04-15T12:36:54;4.85;;;2.70;;
21786;SDS011;11055;50.870;4.316;2023-04-15T12:39:24;3.58;;;3.00;;
21786;SDS011;11055;50.870;4.316;2023-04-15T12:41:51;3.55;;;2.90;;
21786;SDS011;11055;50.870;4.316;2023-04-15T12:44:17;3.35;;;2.80;;
21786;SDS011;11055;50.870;4.316;2023-04-15T12:46:42;3.15;;;2.80;;
21786;SDS011;11055;50.870;4.316;2023-04-15T12:49:08;3.08;;;2.78;;
21786;SDS011;11055;50.870;4.316;2023-04-15T12:51:34;3.33;;;2.63;;
21786;SDS011;11055;50.870;4.316;2023-04-15T12:54:00;3.33;;;2.03;;
21786;SDS011;11055;50.870;4.316;2023-04-15T12:56:25;5.20;;;3.00;;
21786;SDS011;11055;50.870;4.316;2023-04-15T12:58:51;3.13;;;2.25;;
21786;SDS011;11055;50.870;4.316;2023-04-15T13:01:17;4.93;;;2.58;;
21786;SDS011;11055;50.870;4.316;2023-04-15T13:03:43;3.42;;;2.47;;
21786;SDS011;11055;50.870;4.316;2023-04-15T13:06:09;6.90;;;2.60;;
21786;SDS011;11055;50.870;4.316;2023-04-15T13:08:35;3.50;;;2.28;;
21786;SDS011;11055;50.870;4.316;2023-04-15T13:11:01;3.30;;;2.72;;
21786;SDS011;11055;50.870;4.316;2023-04-15T13:13:27;3.72;;;2.60;;
21786;SDS011;11055;50.870;4.316;2023-04-15T13:15:53;3.20;;;2.42;;
21786;SDS011;11055;50.870;4.316;2023-04-15T13:18:18;4.10;;;3.20;;
21786;SDS011;11055;50.870;4.316;2023-04-15T13:20:44;2.92;;;2.67;;
21786;SDS011;11055;50.870;4.316;2023-04-15T13:23:10;4.03;;;2.97;;
21786;SDS011;11055;50.870;4.316;2023-04-15T13:25:35;4.47;;;2.97;;
21786;SDS011;11055;50.870;4.316;2023-04-15T13:28:01;5.55;;;3.50;;
21786;SDS011;11055;50.870;4.316;2023-04-15T13:30:27;3.78;;;2.72;;
21786;SDS011;11055;50.870;4.316;2023-04-15T13:32:52;3.25;;;2.70;;
21786;SDS011;11055;50.870;4.316;2023-04-15T13:35:18;7.28;;;2.40;;
21786;SDS011;11055;50.870;4.316;2023-04-15T13:37:45;4.47;;;2.75;;
21786;SDS011;11055;50.870;4.316;2023-04-15T13:40:11;3.97;;;2.40;;
21786;SDS011;11055;50.870;4.316;2023-04-15T13:42:37;4.55;;;2.20;;
21786;SDS011;11055;50.870;4.316;2023-04-15T13:45:02;6.00;;;2.20;;
21786;SDS011;11055;50.870;4.316;2023-04-15T13:47:28;6.03;;;2.15;;
21786;SDS011;11055;50.870;4.316;2023-04-15T13:49:54;2.38;;;1.90;;
21786;SDS011;11055;50.870;4.316;2023-04-15T13:52:20;4.90;;;2.53;;
21786;SDS011;11055;50.870;4.316;2023-04-15T13:54:47;3.40;;;2.28;;
21786;SDS011;11055;50.870;4.316;2023-04-15T13:57:12;4.07;;;2.50;;
21786;SDS011;11055;50.870;4.316;2023-04-15T13:59:38;6.40;;;2.55;;
21786;SDS011;11055;50.870;4.316;2023-04-15T14:02:04;3.38;;;1.90;;
21786;SDS011;11055;50.870;4.316;2023-04-15T14:04:30;5.38;;;2.53;;
21786;SDS011;11055;50.870;4.316;2023-04-15T14:06:56;4.15;;;2.58;;
21786;SDS011;11055;50.870;4.316;2023-04-15T14:09:22;3.72;;;2.30;;
21786;SDS011;11055;50.870;4.316;2023-04-15T14:11:51;2.65;;;2.28;;
21786;SDS011;11055;50.870;4.316;2023-04-15T14:14:17;3.60;;;2.53;;
21786;SDS011;11055;50.870;4.316;2023-04-15T14:16:43;4.75;;;2.65;;
21786;SDS011;11055;50.870;4.316;2023-04-15T14:19:08;6.40;;;2.60;;
21786;SDS011;11055;50.870;4.316;2023-04-15T14:21:34;5.63;;;2.80;;
21786;SDS011;11055;50.870;4.316;2023-04-15T14:24:00;7.85;;;3.13;;
21786;SDS011;11055;50.870;4.316;2023-04-15T14:26:25;3.63;;;2.25;;
21786;SDS011;11055;50.870;4.316;2023-04-15T14:28:51;2.80;;;1.60;;
21786;SDS011;11055;50.870;4.316;2023-04-15T14:31:17;3.38;;;1.55;;
21786;SDS011;11055;50.870;4.316;2023-04-15T14:33:44;2.22;;;1.17;;
21786;SDS011;11055;50.870;4.316;2023-04-15T14:36:10;1.58;;;1.20;;
21786;SDS011;11055;50.870;4.316;2023-04-15T14:38:36;4.60;;;1.42;;
21786;SDS011;11055;50.870;4.316;2023-04-15T14:41:05;3.22;;;1.50;;
21786;SDS011;11055;50.870;4.316;2023-04-15T14:43:32;3.35;;;1.50;;
21786;SDS011;11055;50.870;4.316;2023-04-15T14:45:58;4.00;;;2.03;;
21786;SDS011;11055;50.870;4.316;2023-04-15T14:48:23;4.63;;;2.30;;
21786;SDS011;11055;50.870;4.316;2023-04-15T14:50:49;5.45;;;2.42;;
21786;SDS011;11055;50.870;4.316;2023-04-15T14:53:15;6.28;;;1.92;;
21786;SDS011;11055;50.870;4.316;2023-04-15T14:55:41;3.83;;;2.45;;
21786;SDS011;11055;50.870;4.316;2023-04-15T14:58:07;3.65;;;2.75;;
21786;SDS011;11055;50.870;4.316;2023-04-15T15:00:33;3.13;;;2.20;;
21786;SDS011;11055;50.870;4.316;2023-04-15T15:03:00;3.67;;;2.30;;
21786;SDS011;11055;50.870;4.316;2023-04-15T15:05:25;3.05;;;2.53;;
21786;SDS011;11055;50.870;4.316;2023-04-15T15:07:51;3.80;;;2.70;;
21786;SDS011;11055;50.870;4.316;2023-04-15T15:10:17;4.40;;;2.50;;
21786;SDS011;11055;50.870;4.316;2023-04-15T15:12:43;6.28;;;3.08;;